sensor_id;sensor_type;location;lat;lon;timestamp;P1;durP1;ratioP1;P2;durP2;ratioP2
28245;SDS011;15510;52.512;13.300;2022-07-03T00:01:03;2.00;;;1.90;;
28245;SDS011;15510;52.512;13.300;2022-07-03T00:03:29;2.80;;;1.75;;
28245;SDS011;15510;52.512;13.300;2022-07-03T00:05:54;2.40;;;2.20;;
28245;SDS011;15510;52.512;13.300;2022-07-03T00:08:20;3.20;;;2.00;;
28245;SDS011;15510;52.512;13.300;2022-07-03T00:10:47;1.80;;;1.65;;
28245;SDS011;15510;52.512;13.300;2022-07-03T00:13:13;3.03;;;1.80;;
28245;SDS011;15510;52.512;13.300;2022-07-03T00:15:38;2.83;;;1.60;;
28245;SDS011;15510;52.512;13.300;2022-07-03T00:18:04;2.38;;;2.17;;
28245;SDS011;15510;52.512;13.300;2022-07-03T00:20:33;2.88;;;1.90;;
28245;SDS011;15510;52.512;13.300;2022-07-03T00:23:06;2.33;;;2.00;;
28245;SDS011;15510;52.512;13.300;2022-07-03T00:25:34;2.35;;;1.98;;
28245;SDS011;15510;52.512;13.300;2022-07-03T00:28:01;2.20;;;2.00;;
28245;SDS011;15510;52.512;13.300;2022-07-03T00:30:28;2.78;;;2.20;;
28245;SDS011;15510;52.512;13.300;2022-07-03T00:32:54;4.25;;;2.10;;
28245;SDS011;15510;52.512;13.300;2022-07-03T00:35:20;2.40;;;2.20;;
28245;SDS011;15510;52.512;13.300;2022-07-03T00:37:46;3.10;;;2.13;;
28245;SDS011;15510;52.512;13.300;2022-07-03T00:40:11;2.15;;;2.05;;
28245;SDS011;15510;52.512;13.300;2022-07-03T00:42:37;4.32;;;2.28;;
28245;SDS011;15510;52.512;13.300;2022-07-03T00:45:04;3.20;;;2.25;;
28245;SDS011;15510;52.512;13.300;2022-07-03T00:47:32;3.30;;;2.45;;
28245;SDS011;15510;52.512;13.300;2022-07-03T00:50:00;2.00;;;1.90;;
28245;SDS011;15510;52.512;13.300;2022-07-03T00:52:32;3.33;;;2.05;;
28245;SDS011;15510;52.512;13.300;2022-07-03T00:54:59;3.60;;;2.10;;
28245;SDS011;15510;52.512;13.300;2022-07-03T00:57:28;3.97;;;2.15;;
28245;SDS011;15510;52.512;13.300;2022-07-03T00:59:55;2.58;;;2.00;;
28245;SDS011;15510;52.512;13.300;2022-07-03T01:02:27;3.17;;;2.38;;
28245;SDS011;15510;52.512;13.300;2022-07-03T01:05:12;2.22;;;2.03;;
28245;SDS011;15510;52.512;13.300;2022-07-03T01:08:10;2.28;;;2.08;;
28245;SDS011;15510;52.512;13.300;2022-07-03T01:19:10;2.28;;;2.03;;
28245;SDS011;15510;52.512;13.300;2022-07-03T01:24:28;3.75;;;2.58;;
28245;SDS011;15510;52.512;13.300;2022-07-03T01:27:22;4.68;;;2.28;;
28245;SDS011;15510;52.512;13.300;2022-07-03T01:30:07;2.47;;;1.98;;
28245;SDS011;15510;52.512;13.300;2022-07-03T01:32:45;2.25;;;2.10;;
28245;SDS011;15510;52.512;13.300;2022-07-03T01:35:12;2.67;;;2.13;;
28245;SDS011;15510;52.512;13.300;2022-07-03T01:37:44;3.40;;;2.60;;
28245;SDS011;15510;52.512;13.300;2022-07-03T01:40:11;6.00;;;2.67;;
28245;SDS011;15510;52.512;13.300;2022-07-03T01:42:37;5.20;;;2.42;;
28245;SDS011;15510;52.512;13.300;2022-07-03T01:45:08;4.75;;;2.70;;
28245;SDS011;15510;52.512;13.300;2022-07-03T01:47:35;2.95;;;2.40;;
28245;SDS011;15510;52.512;13.300;2022-07-03T01:50:06;5.18;;;2.22;;
28245;SDS011;15510;52.512;13.300;2022-07-03T01:52:37;2.70;;;2.50;;
28245;SDS011;15510;52.512;13.300;2022-07-03T01:55:05;3.08;;;2.78;;
28245;SDS011;15510;52.512;13.300;2022-07-03T01:57:35;2.50;;;2.30;;
28245;SDS011;15510;52.512;13.300;2022-07-03T02:00:07;2.90;;;2.70;;
28245;SDS011;15510;52.512;13.300;2022-07-03T02:02:39;6.72;;;2.53;;
28245;SDS011;15510;52.512;13.300;2022-07-03T02:05:09;2.60;;;2.40;;
28245;SDS011;15510;52.512;13.300;2022-07-03T02:07:57;3.63;;;2.50;;
28245;SDS011;15510;52.512;13.300;2022-07-03T02:10:34;3.08;;;2.72;;
28245;SDS011;15510;52.512;13.300;2022-07-03T02:13:24;2.85;;;2.65;;
28245;SDS011;15510;52.512;13.300;2022-07-03T02:15:53;2.70;;;2.45;;
28245;SDS011;15510;52.512;13.300;2022-07-03T02:18:36;2.90;;;2.60;;
28245;SDS011;15510;52.512;13.300;2022-07-03T02:21:15;2.80;;;2.60;;
28245;SDS011;15510;52.512;13.300;2022-07-03T02:23:51;3.03;;;2.72;;
28245;SDS011;15510;52.512;13.300;2022-07-03T02:26:33;2.60;;;2.40;;
28245;SDS011;15510;52.512;13.300;2022-07-03T02:29:03;2.70;;;2.50;;
28245;SDS011;15510;52.512;13.300;2022-07-03T02:31:38;4.28;;;3.25;;
28245;SDS011;15510;52.512;13.300;2022-07-03T02:34:07;3.72;;;2.25;;
28245;SDS011;15510;52.512;13.300;2022-07-03T02:36:36;4.88;;;2.70;;
28245;SDS011;15510;52.512;13.300;2022-07-03T02:39:05;2.70;;;2.50;;
28245;SDS011;15510;52.512;13.300;2022-07-03T02:41:43;4.35;;;2.58;;
28245;SDS011;15510;52.512;13.300;2022-07-03T02:44:31;4.40;;;3.05;;
28245;SDS011;15510;52.512;13.300;2022-07-03T02:47:11;4.00;;;2.75;;
28245;SDS011;15510;52.512;13.300;2022-07-03T02:49:56;3.78;;;2.65;;
28245;SDS011;15510;52.512;13.300;2022-07-03T03:03:33;3.33;;;2.83;;
28245;SDS011;15510;52.512;13.300;2022-07-03T03:06:03;3.10;;;2.72;;
28245;SDS011;15510;52.512;13.300;2022-07-03T03:08:37;3.53;;;2.78;;
28245;SDS011;15510;52.512;13.300;2022-07-03T03:11:42;2.67;;;2.47;;
28245;SDS011;15510;52.512;13.300;2022-07-03T03:14:13;3.38;;;2.97;;
28245;SDS011;15510;52.512;13.300;2022-07-03T03:16:52;3.30;;;2.65;;
28245;SDS011;15510;52.512;13.300;2022-07-03T03:19:22;2.90;;;2.70;;
28245;SDS011;15510;52.512;13.300;2022-07-03T03:21:55;3.10;;;2.80;;
28245;SDS011;15510;52.512;13.300;2022-07-03T03:24:24;4.15;;;3.05;;
28245;SDS011;15510;52.512;13.300;2022-07-03T03:26:50;4.90;;;3.20;;
28245;SDS011;15510;52.512;13.300;2022-07-03T03:29:16;3.83;;;3.13;;
28245;SDS011;15510;52.512;13.300;2022-07-03T03:31:41;6.40;;;3.30;;
28245;SDS011;15510;52.512;13.300;2022-07-03T03:34:07;3.00;;;2.70;;
28245;SDS011;15510;52.512;13.300;2022-07-03T03:36:34;4.25;;;2.72;;
28245;SDS011;15510;52.512;13.300;2022-07-03T03:39:00;3.55;;;3.25;;
28245;SDS011;15510;52.512;13.300;2022-07-03T03:41:26;5.65;;;3.15;;
28245;SDS011;15510;52.512;13.300;2022-07-03T03:43:52;3.75;;;3.38;;
28245;SDS011;15510;52.512;13.300;2022-07-03T03:46:18;3.30;;;2.97;;
28245;SDS011;15510;52.512;13.300;2022-07-03T03:48:43;3.25;;;2.95;;
28245;SDS011;15510;52.512;13.300;2022-07-03T03:51:09;3.45;;;3.15;;
28245;SDS011;15510;52.512;13.300;2022-07-03T03:53:35;6.78;;;3.35;;
28245;SDS011;15510;52.512;13.300;2022-07-03T03:56:02;3.15;;;2.85;;
28245;SDS011;15510;52.512;13.300;2022-07-03T03:58:32;2.90;;;2.65;;
28245;SDS011;15510;52.512;13.300;2022-07-03T04:01:00;3.05;;;2.85;;
28245;SDS011;15510;52.512;13.300;2022-07-03T04:03:28;3.33;;;3.03;;
28245;SDS011;15510;52.512;13.300;2022-07-03T04:05:55;3.40;;;3.10;;
28245;SDS011;15510;52.512;13.300;2022-07-03T04:08:21;3.90;;;3.60;;
28245;SDS011;15510;52.512;13.300;2022-07-03T04:10:47;4.22;;;2.72;;
28245;SDS011;15510;52.512;13.300;2022-07-03T04:13:13;4.70;;;2.90;;
28245;SDS011;15510;52.512;13.300;2022-07-03T04:15:39;3.30;;;2.97;;
28245;SDS011;15510;52.512;13.300;2022-07-03T04:18:05;5.07;;;3.28;;
28245;SDS011;15510;52.512;13.300;2022-07-03T04:20:31;3.00;;;2.70;;
28245;SDS011;15510;52.512;13.300;2022-07-03T04:22:57;3.80;;;3.33;;
28245;SDS011;15510;52.512;13.300;2022-07-03T04:25:23;3.67;;;2.80;;
28245;SDS011;15510;52.512;13.300;2022-07-03T04:27:49;3.28;;;2.97;;
28245;SDS011;15510;52.512;13.300;2022-07-03T04:30:15;3.83;;;3.20;;
28245;SDS011;15510;52.512;13.300;2022-07-03T04:32:41;3.53;;;3.22;;
28245;SDS011;15510;52.512;13.300;2022-07-03T04:35:07;3.35;;;2.90;;
28245;SDS011;15510;52.512;13.300;2022-07-03T04:37:33;6.53;;;3.28;;
28245;SDS011;15510;52.512;13.300;2022-07-03T04:39:59;3.47;;;2.90;;
28245;SDS011;15510;52.512;13.300;2022-07-03T04:42:25;5.18;;;2.88;;
28245;SDS011;15510;52.512;13.300;2022-07-03T04:44:50;3.22;;;2.92;;
28245;SDS011;15510;52.512;13.300;2022-07-03T04:47:16;3.05;;;2.80;;
28245;SDS011;15510;52.512;13.300;2022-07-03T04:49:41;3.28;;;2.97;;
28245;SDS011;15510;52.512;13.300;2022-07-03T04:52:07;5.50;;;3.05;;
28245;SDS011;15510;52.512;13.300;2022-07-03T04:54:34;3.42;;;3.13;;
28245;SDS011;15510;52.512;13.300;2022-07-03T04:57:00;3.08;;;2.88;;
28245;SDS011;15510;52.512;13.300;2022-07-03T04:59:26;3.30;;;3.00;;
28245;SDS011;15510;52.512;13.300;2022-07-03T05:01:52;2.95;;;2.75;;
28245;SDS011;15510;52.512;13.300;2022-07-03T05:04:18;6.47;;;2.97;;
28245;SDS011;15510;52.512;13.300;2022-07-03T05:06:43;3.00;;;2.80;;
28245;SDS011;15510;52.512;13.300;2022-07-03T05:09:09;5.63;;;2.78;;
28245;SDS011;15510;52.512;13.300;2022-07-03T05:11:35;3.33;;;3.03;;
28245;SDS011;15510;52.512;13.300;2022-07-03T05:14:01;5.60;;;3.22;;
28245;SDS011;15510;52.512;13.300;2022-07-03T05:16:28;3.08;;;2.65;;
28245;SDS011;15510;52.512;13.300;2022-07-03T05:18:53;4.70;;;2.80;;
28245;SDS011;15510;52.512;13.300;2022-07-03T05:21:19;3.13;;;2.75;;
28245;SDS011;15510;52.512;13.300;2022-07-03T05:23:45;3.75;;;2.97;;
28245;SDS011;15510;52.512;13.300;2022-07-03T05:26:11;3.95;;;3.33;;
28245;SDS011;15510;52.512;13.300;2022-07-03T05:28:36;2.88;;;2.60;;
28245;SDS011;15510;52.512;13.300;2022-07-03T05:31:02;6.30;;;3.10;;
28245;SDS011;15510;52.512;13.300;2022-07-03T05:33:28;5.10;;;2.85;;
28245;SDS011;15510;52.512;13.300;2022-07-03T05:35:57;3.92;;;2.90;;
28245;SDS011;15510;52.512;13.300;2022-07-03T05:38:23;3.17;;;2.80;;
28245;SDS011;15510;52.512;13.300;2022-07-03T05:41:08;3.05;;;2.47;;
28245;SDS011;15510;52.512;13.300;2022-07-03T05:43:34;2.75;;;2.55;;
28245;SDS011;15510;52.512;13.300;2022-07-03T05:45:59;2.60;;;2.40;;
28245;SDS011;15510;52.512;13.300;2022-07-03T05:48:25;3.13;;;2.13;;
28245;SDS011;15510;52.512;13.300;2022-07-03T05:50:51;2.85;;;2.13;;
28245;SDS011;15510;52.512;13.300;2022-07-03T05:53:17;4.75;;;2.22;;
28245;SDS011;15510;52.512;13.300;2022-07-03T05:55:43;2.40;;;2.20;;
28245;SDS011;15510;52.512;13.300;2022-07-03T05:58:08;3.50;;;1.90;;
28245;SDS011;15510;52.512;13.300;2022-07-03T06:00:34;2.25;;;1.77;;
28245;SDS011;15510;52.512;13.300;2022-07-03T06:03:00;3.92;;;2.33;;
28245;SDS011;15510;52.512;13.300;2022-07-03T06:05:27;3.28;;;2.40;;
28245;SDS011;15510;52.512;13.300;2022-07-03T06:07:53;2.58;;;2.40;;
28245;SDS011;15510;52.512;13.300;2022-07-03T06:10:19;3.20;;;2.10;;
28245;SDS011;15510;52.512;13.300;2022-07-03T06:12:45;4.75;;;2.20;;
28245;SDS011;15510;52.512;13.300;2022-07-03T06:15:11;3.55;;;2.40;;
28245;SDS011;15510;52.512;13.300;2022-07-03T06:17:36;2.85;;;2.30;;
28245;SDS011;15510;52.512;13.300;2022-07-03T06:20:05;2.20;;;2.00;;
28245;SDS011;15510;52.512;13.300;2022-07-03T06:22:32;4.88;;;2.15;;
28245;SDS011;15510;52.512;13.300;2022-07-03T06:24:58;2.10;;;1.90;;
28245;SDS011;15510;52.512;13.300;2022-07-03T06:27:24;2.40;;;2.20;;
28245;SDS011;15510;52.512;13.300;2022-07-03T06:29:50;2.42;;;2.10;;
28245;SDS011;15510;52.512;13.300;2022-07-03T06:32:16;2.58;;;2.00;;
28245;SDS011;15510;52.512;13.300;2022-07-03T06:34:42;4.50;;;2.13;;
28245;SDS011;15510;52.512;13.300;2022-07-03T06:37:08;2.38;;;2.10;;
28245;SDS011;15510;52.512;13.300;2022-07-03T06:39:34;3.65;;;2.10;;
28245;SDS011;15510;52.512;13.300;2022-07-03T06:42:00;8.43;;;2.30;;
28245;SDS011;15510;52.512;13.300;2022-07-03T06:44:26;4.43;;;1.88;;
28245;SDS011;15510;52.512;13.300;2022-07-03T06:46:52;2.30;;;2.10;;
28245;SDS011;15510;52.512;13.300;2022-07-03T06:49:18;1.83;;;1.70;;
28245;SDS011;15510;52.512;13.300;2022-07-03T06:51:44;3.22;;;1.83;;
28245;SDS011;15510;52.512;13.300;2022-07-03T06:54:09;3.45;;;1.88;;
28245;SDS011;15510;52.512;13.300;2022-07-03T06:56:35;2.85;;;1.75;;
28245;SDS011;15510;52.512;13.300;2022-07-03T06:59:01;3.00;;;2.08;;
28245;SDS011;15510;52.512;13.300;2022-07-03T07:01:26;3.38;;;1.90;;
28245;SDS011;15510;52.512;13.300;2022-07-03T07:03:52;2.30;;;1.90;;
28245;SDS011;15510;52.512;13.300;2022-07-03T07:06:17;3.85;;;2.75;;
28245;SDS011;15510;52.512;13.300;2022-07-03T07:08:43;3.70;;;2.00;;
28245;SDS011;15510;52.512;13.300;2022-07-03T07:11:09;2.03;;;1.92;;
28245;SDS011;15510;52.512;13.300;2022-07-03T07:13:34;4.63;;;1.35;;
28245;SDS011;15510;52.512;13.300;2022-07-03T07:16:00;3.65;;;1.52;;
28245;SDS011;15510;52.512;13.300;2022-07-03T07:18:26;1.83;;;1.73;;
28245;SDS011;15510;52.512;13.300;2022-07-03T07:20:52;4.70;;;2.47;;
28245;SDS011;15510;52.512;13.300;2022-07-03T07:23:18;3.90;;;2.83;;
28245;SDS011;15510;52.512;13.300;2022-07-03T07:25:44;2.25;;;2.05;;
28245;SDS011;15510;52.512;13.300;2022-07-03T07:28:10;1.77;;;1.50;;
28245;SDS011;15510;52.512;13.300;2022-07-03T07:30:35;1.80;;;1.70;;
28245;SDS011;15510;52.512;13.300;2022-07-03T07:33:01;4.00;;;1.83;;
28245;SDS011;15510;52.512;13.300;2022-07-03T07:35:27;6.85;;;1.80;;
28245;SDS011;15510;52.512;13.300;2022-07-03T07:37:52;2.40;;;1.55;;
28245;SDS011;15510;52.512;13.300;2022-07-03T07:40:18;2.83;;;1.70;;
28245;SDS011;15510;52.512;13.300;2022-07-03T07:42:44;1.85;;;1.70;;
28245;SDS011;15510;52.512;13.300;2022-07-03T07:45:10;4.80;;;1.95;;
28245;SDS011;15510;52.512;13.300;2022-07-03T07:47:35;3.08;;;1.80;;
28245;SDS011;15510;52.512;13.300;2022-07-03T07:50:01;2.42;;;1.70;;
28245;SDS011;15510;52.512;13.300;2022-07-03T07:52:28;3.05;;;1.35;;
28245;SDS011;15510;52.512;13.300;2022-07-03T07:54:53;4.30;;;1.30;;
28245;SDS011;15510;52.512;13.300;2022-07-03T07:57:19;4.47;;;2.10;;
28245;SDS011;15510;52.512;13.300;2022-07-03T07:59:45;2.00;;;1.80;;
28245;SDS011;15510;52.512;13.300;2022-07-03T08:02:11;2.38;;;1.75;;
28245;SDS011;15510;52.512;13.300;2022-07-03T08:04:55;1.55;;;1.45;;
28245;SDS011;15510;52.512;13.300;2022-07-03T08:07:39;2.10;;;1.60;;
28245;SDS011;15510;52.512;13.300;2022-07-03T08:10:05;4.70;;;1.83;;
28245;SDS011;15510;52.512;13.300;2022-07-03T08:12:31;1.77;;;1.65;;
28245;SDS011;15510;52.512;13.300;2022-07-03T08:14:56;2.95;;;1.50;;
28245;SDS011;15510;52.512;13.300;2022-07-03T08:17:22;2.55;;;1.55;;
28245;SDS011;15510;52.512;13.300;2022-07-03T08:19:48;2.05;;;1.70;;
28245;SDS011;15510;52.512;13.300;2022-07-03T08:22:13;2.90;;;1.55;;
28245;SDS011;15510;52.512;13.300;2022-07-03T08:24:39;1.95;;;1.75;;
28245;SDS011;15510;52.512;13.300;2022-07-03T08:27:05;2.20;;;1.63;;
28245;SDS011;15510;52.512;13.300;2022-07-03T08:29:31;1.65;;;1.50;;
28245;SDS011;15510;52.512;13.300;2022-07-03T08:31:56;1.73;;;1.60;;
28245;SDS011;15510;52.512;13.300;2022-07-03T08:34:22;1.88;;;1.77;;
28245;SDS011;15510;52.512;13.300;2022-07-03T08:36:48;4.53;;;1.80;;
28245;SDS011;15510;52.512;13.300;2022-07-03T08:39:14;2.90;;;1.63;;
28245;SDS011;15510;52.512;13.300;2022-07-03T08:41:40;2.97;;;1.40;;
28245;SDS011;15510;52.512;13.300;2022-07-03T08:44:07;2.20;;;1.55;;
28245;SDS011;15510;52.512;13.300;2022-07-03T08:46:36;1.90;;;1.80;;
28245;SDS011;15510;52.512;13.300;2022-07-03T08:49:02;7.20;;;1.80;;
28245;SDS011;15510;52.512;13.300;2022-07-03T08:51:28;3.15;;;1.60;;
28245;SDS011;15510;52.512;13.300;2022-07-03T08:53:54;1.80;;;1.45;;
28245;SDS011;15510;52.512;13.300;2022-07-03T08:56:20;1.65;;;1.55;;
28245;SDS011;15510;52.512;13.300;2022-07-03T08:58:50;2.13;;;1.52;;
28245;SDS011;15510;52.512;13.300;2022-07-03T09:01:16;1.92;;;1.45;;
28245;SDS011;15510;52.512;13.300;2022-07-03T09:03:43;2.10;;;1.70;;
28245;SDS011;15510;52.512;13.300;2022-07-03T09:06:14;1.85;;;1.48;;
28245;SDS011;15510;52.512;13.300;2022-07-03T09:08:40;3.92;;;1.70;;
28245;SDS011;15510;52.512;13.300;2022-07-03T09:11:06;2.92;;;1.55;;
28245;SDS011;15510;52.512;13.300;2022-07-03T09:13:32;2.53;;;1.40;;
28245;SDS011;15510;52.512;13.300;2022-07-03T09:15:57;2.83;;;1.48;;
28245;SDS011;15510;52.512;13.300;2022-07-03T09:18:42;1.58;;;1.48;;
28245;SDS011;15510;52.512;13.300;2022-07-03T09:21:09;3.85;;;1.70;;
28245;SDS011;15510;52.512;13.300;2022-07-03T09:23:36;1.83;;;1.50;;
28245;SDS011;15510;52.512;13.300;2022-07-03T09:26:05;4.60;;;1.58;;
28245;SDS011;15510;52.512;13.300;2022-07-03T09:31:18;1.55;;;1.40;;
28245;SDS011;15510;52.512;13.300;2022-07-03T09:33:59;1.45;;;1.35;;
28245;SDS011;15510;52.512;13.300;2022-07-03T09:36:48;1.65;;;1.55;;
28245;SDS011;15510;52.512;13.300;2022-07-03T09:39:16;1.92;;;1.50;;
28245;SDS011;15510;52.512;13.300;2022-07-03T09:41:54;1.70;;;1.33;;
28245;SDS011;15510;52.512;13.300;2022-07-03T09:44:29;1.58;;;1.40;;
28245;SDS011;15510;52.512;13.300;2022-07-03T09:47:08;3.03;;;1.70;;
28245;SDS011;15510;52.512;13.300;2022-07-03T09:49:54;2.50;;;1.50;;
28245;SDS011;15510;52.512;13.300;2022-07-03T09:54:54;1.70;;;1.60;;
28245;SDS011;15510;52.512;13.300;2022-07-03T09:57:36;2.25;;;1.42;;
28245;SDS011;15510;52.512;13.300;2022-07-03T10:00:23;1.38;;;1.27;;
28245;SDS011;15510;52.512;13.300;2022-07-03T10:03:03;1.60;;;1.50;;
28245;SDS011;15510;52.512;13.300;2022-07-03T10:10:42;2.75;;;1.48;;
28245;SDS011;15510;52.512;13.300;2022-07-03T10:13:09;1.50;;;1.40;;
28245;SDS011;15510;52.512;13.300;2022-07-03T10:15:36;1.60;;;1.45;;
28245;SDS011;15510;52.512;13.300;2022-07-03T10:18:03;2.00;;;1.50;;
28245;SDS011;15510;52.512;13.300;2022-07-03T10:20:40;3.05;;;1.30;;
28245;SDS011;15510;52.512;13.300;2022-07-03T10:23:06;1.80;;;1.17;;
28245;SDS011;15510;52.512;13.300;2022-07-03T10:25:32;1.50;;;1.40;;
28245;SDS011;15510;52.512;13.300;2022-07-03T10:27:58;5.47;;;1.50;;
28245;SDS011;15510;52.512;13.300;2022-07-03T10:30:25;1.52;;;1.42;;
28245;SDS011;15510;52.512;13.300;2022-07-03T10:32:52;3.72;;;1.58;;
28245;SDS011;15510;52.512;13.300;2022-07-03T10:35:21;3.03;;;1.52;;
28245;SDS011;15510;52.512;13.300;2022-07-03T10:41:12;3.22;;;1.40;;
28245;SDS011;15510;52.512;13.300;2022-07-03T10:43:51;1.85;;;1.30;;
28245;SDS011;15510;52.512;13.300;2022-07-03T10:46:36;2.63;;;1.48;;
28245;SDS011;15510;52.512;13.300;2022-07-03T10:49:05;2.15;;;1.20;;
28245;SDS011;15510;52.512;13.300;2022-07-03T10:59:22;1.17;;;1.00;;
28245;SDS011;15510;52.512;13.300;2022-07-03T11:02:17;1.48;;;1.05;;
28245;SDS011;15510;52.512;13.300;2022-07-03T11:07:24;1.15;;;1.08;;
28245;SDS011;15510;52.512;13.300;2022-07-03T11:15:42;1.63;;;1.20;;
28245;SDS011;15510;52.512;13.300;2022-07-03T11:25:52;2.40;;;0.90;;
28245;SDS011;15510;52.512;13.300;2022-07-03T11:38:46;2.22;;;2.13;;
28245;SDS011;15510;52.512;13.300;2022-07-03T11:41:13;3.10;;;1.02;;
28245;SDS011;15510;52.512;13.300;2022-07-03T11:43:51;2.15;;;0.93;;
28245;SDS011;15510;52.512;13.300;2022-07-03T11:46:19;2.45;;;1.33;;
28245;SDS011;15510;52.512;13.300;2022-07-03T11:48:47;1.17;;;0.88;;
28245;SDS011;15510;52.512;13.300;2022-07-03T11:51:13;1.00;;;0.73;;
28245;SDS011;15510;52.512;13.300;2022-07-03T11:53:39;2.92;;;1.00;;
28245;SDS011;15510;52.512;13.300;2022-07-03T11:56:09;2.75;;;1.05;;
28245;SDS011;15510;52.512;13.300;2022-07-03T11:58:39;0.90;;;0.73;;
28245;SDS011;15510;52.512;13.300;2022-07-03T12:01:07;4.78;;;1.00;;
28245;SDS011;15510;52.512;13.300;2022-07-03T12:03:54;1.80;;;1.45;;
28245;SDS011;15510;52.512;13.300;2022-07-03T12:14:33;2.25;;;0.90;;
28245;SDS011;15510;52.512;13.300;2022-07-03T12:17:03;2.15;;;0.60;;
28245;SDS011;15510;52.512;13.300;2022-07-03T12:19:29;1.90;;;0.60;;
28245;SDS011;15510;52.512;13.300;2022-07-03T12:21:55;1.40;;;0.60;;
28245;SDS011;15510;52.512;13.300;2022-07-03T12:24:21;3.25;;;0.73;;
28245;SDS011;15510;52.512;13.300;2022-07-03T12:26:47;1.15;;;0.80;;
28245;SDS011;15510;52.512;13.300;2022-07-03T12:29:13;3.85;;;0.70;;
28245;SDS011;15510;52.512;13.300;2022-07-03T12:31:40;0.63;;;0.63;;
28245;SDS011;15510;52.512;13.300;2022-07-03T12:34:09;0.90;;;0.88;;
28245;SDS011;15510;52.512;13.300;2022-07-03T12:36:36;2.67;;;1.00;;
28245;SDS011;15510;52.512;13.300;2022-07-03T12:39:03;0.98;;;0.70;;
28245;SDS011;15510;52.512;13.300;2022-07-03T12:41:29;0.60;;;0.50;;
28245;SDS011;15510;52.512;13.300;2022-07-03T12:43:57;2.63;;;0.50;;
28245;SDS011;15510;52.512;13.300;2022-07-03T12:46:33;2.78;;;0.80;;
28245;SDS011;15510;52.512;13.300;2022-07-03T12:49:11;1.77;;;0.77;;
28245;SDS011;15510;52.512;13.300;2022-07-03T12:51:42;0.65;;;0.57;;
28245;SDS011;15510;52.512;13.300;2022-07-03T13:00:04;0.85;;;0.60;;
28245;SDS011;15510;52.512;13.300;2022-07-03T13:02:31;1.10;;;0.50;;
28245;SDS011;15510;52.512;13.300;2022-07-03T13:04:58;3.00;;;0.70;;
28245;SDS011;15510;52.512;13.300;2022-07-03T13:07:27;0.82;;;0.50;;
28245;SDS011;15510;52.512;13.300;2022-07-03T13:09:59;0.70;;;0.70;;
28245;SDS011;15510;52.512;13.300;2022-07-03T13:12:26;2.25;;;0.80;;
28245;SDS011;15510;52.512;13.300;2022-07-03T13:14:59;1.15;;;0.80;;
28245;SDS011;15510;52.512;13.300;2022-07-03T13:20:19;0.50;;;0.43;;
28245;SDS011;15510;52.512;13.300;2022-07-03T13:22:49;3.97;;;0.57;;
28245;SDS011;15510;52.512;13.300;2022-07-03T13:25:16;2.00;;;1.20;;
28245;SDS011;15510;52.512;13.300;2022-07-03T13:27:42;2.15;;;1.15;;
28245;SDS011;15510;52.512;13.300;2022-07-03T13:30:11;2.10;;;1.17;;
28245;SDS011;15510;52.512;13.300;2022-07-03T13:32:39;1.80;;;0.50;;
28245;SDS011;15510;52.512;13.300;2022-07-03T13:35:06;0.60;;;0.50;;
28245;SDS011;15510;52.512;13.300;2022-07-03T13:37:33;2.22;;;0.50;;
28245;SDS011;15510;52.512;13.300;2022-07-03T13:39:59;1.08;;;0.80;;
28245;SDS011;15510;52.512;13.300;2022-07-03T13:42:25;0.75;;;0.40;;
28245;SDS011;15510;52.512;13.300;2022-07-03T13:44:51;1.90;;;0.80;;
28245;SDS011;15510;52.512;13.300;2022-07-03T13:47:17;0.85;;;0.70;;
28245;SDS011;15510;52.512;13.300;2022-07-03T13:49:42;0.77;;;0.65;;
28245;SDS011;15510;52.512;13.300;2022-07-03T13:52:08;6.18;;;4.82;;
28245;SDS011;15510;52.512;13.300;2022-07-03T13:54:34;1.35;;;1.17;;
28245;SDS011;15510;52.512;13.300;2022-07-03T13:57:00;1.38;;;1.10;;
28245;SDS011;15510;52.512;13.300;2022-07-03T13:59:27;0.73;;;0.60;;
28245;SDS011;15510;52.512;13.300;2022-07-03T14:01:55;4.30;;;0.68;;
28245;SDS011;15510;52.512;13.300;2022-07-03T14:04:22;0.73;;;0.70;;
28245;SDS011;15510;52.512;13.300;2022-07-03T14:06:47;0.85;;;0.35;;
28245;SDS011;15510;52.512;13.300;2022-07-03T14:09:13;1.27;;;0.60;;
28245;SDS011;15510;52.512;13.300;2022-07-03T14:11:39;0.55;;;0.45;;
28245;SDS011;15510;52.512;13.300;2022-07-03T14:14:04;2.10;;;0.47;;
28245;SDS011;15510;52.512;13.300;2022-07-03T14:16:31;0.95;;;0.40;;
28245;SDS011;15510;52.512;13.300;2022-07-03T14:18:57;3.28;;;0.60;;
28245;SDS011;15510;52.512;13.300;2022-07-03T14:21:23;3.75;;;3.45;;
28245;SDS011;15510;52.512;13.300;2022-07-03T14:23:48;2.45;;;0.63;;
28245;SDS011;15510;52.512;13.300;2022-07-03T14:26:14;2.40;;;0.40;;
28245;SDS011;15510;52.512;13.300;2022-07-03T14:28:40;0.45;;;0.38;;
28245;SDS011;15510;52.512;13.300;2022-07-03T14:31:24;1.88;;;0.70;;
28245;SDS011;15510;52.512;13.300;2022-07-03T14:34:08;0.77;;;0.40;;
28245;SDS011;15510;52.512;13.300;2022-07-03T14:36:34;2.05;;;0.47;;
28245;SDS011;15510;52.512;13.300;2022-07-03T14:39:00;0.65;;;0.60;;
28245;SDS011;15510;52.512;13.300;2022-07-03T14:41:25;1.98;;;1.10;;
28245;SDS011;15510;52.512;13.300;2022-07-03T14:43:51;0.75;;;0.40;;
28245;SDS011;15510;52.512;13.300;2022-07-03T14:46:17;1.77;;;0.55;;
28245;SDS011;15510;52.512;13.300;2022-07-03T14:48:43;3.35;;;1.30;;
28245;SDS011;15510;52.512;13.300;2022-07-03T14:51:09;1.65;;;0.85;;
28245;SDS011;15510;52.512;13.300;2022-07-03T14:53:35;1.50;;;0.70;;
28245;SDS011;15510;52.512;13.300;2022-07-03T14:56:00;1.65;;;0.73;;
28245;SDS011;15510;52.512;13.300;2022-07-03T14:58:26;0.93;;;0.70;;
28245;SDS011;15510;52.512;13.300;2022-07-03T15:00:55;3.47;;;0.90;;
28245;SDS011;15510;52.512;13.300;2022-07-03T15:03:26;1.55;;;0.90;;
28245;SDS011;15510;52.512;13.300;2022-07-03T15:05:57;1.08;;;0.90;;
28245;SDS011;15510;52.512;13.300;2022-07-03T15:11:02;1.52;;;0.93;;
28245;SDS011;15510;52.512;13.300;2022-07-03T15:13:32;2.30;;;1.00;;
28245;SDS011;15510;52.512;13.300;2022-07-03T15:15:59;1.60;;;1.50;;
28245;SDS011;15510;52.512;13.300;2022-07-03T15:18:26;3.03;;;1.08;;
28245;SDS011;15510;52.512;13.300;2022-07-03T15:20:53;1.48;;;1.17;;
28245;SDS011;15510;52.512;13.300;2022-07-03T15:23:20;3.35;;;0.80;;
28245;SDS011;15510;52.512;13.300;2022-07-03T15:25:46;2.58;;;1.30;;
28245;SDS011;15510;52.512;13.300;2022-07-03T15:28:13;0.88;;;0.88;;
28245;SDS011;15510;52.512;13.300;2022-07-03T15:30:47;3.25;;;1.10;;
28245;SDS011;15510;52.512;13.300;2022-07-03T15:33:14;2.65;;;0.80;;
28245;SDS011;15510;52.512;13.300;2022-07-03T15:35:49;2.10;;;1.08;;
28245;SDS011;15510;52.512;13.300;2022-07-03T15:38:21;1.00;;;0.93;;
28245;SDS011;15510;52.512;13.300;2022-07-03T15:41:06;0.90;;;0.80;;
28245;SDS011;15510;52.512;13.300;2022-07-03T15:43:43;1.50;;;1.00;;
28245;SDS011;15510;52.512;13.300;2022-07-03T15:46:21;1.77;;;0.90;;
28245;SDS011;15510;52.512;13.300;2022-07-03T15:57:01;3.03;;;2.72;;
28245;SDS011;15510;52.512;13.300;2022-07-03T15:59:29;0.80;;;0.80;;
28245;SDS011;15510;52.512;13.300;2022-07-03T16:01:57;1.52;;;1.42;;
28245;SDS011;15510;52.512;13.300;2022-07-03T16:07:21;4.65;;;1.40;;
28245;SDS011;15510;52.512;13.300;2022-07-03T16:09:48;2.97;;;1.50;;
28245;SDS011;15510;52.512;13.300;2022-07-03T16:12:15;2.25;;;1.75;;
28245;SDS011;15510;52.512;13.300;2022-07-03T16:14:48;3.33;;;1.23;;
28245;SDS011;15510;52.512;13.300;2022-07-03T16:17:18;2.05;;;1.60;;
28245;SDS011;15510;52.512;13.300;2022-07-03T16:19:47;3.05;;;1.17;;
28245;SDS011;15510;52.512;13.300;2022-07-03T16:22:14;1.27;;;1.17;;
28245;SDS011;15510;52.512;13.300;2022-07-03T16:24:41;2.67;;;1.52;;